sensor_id;sensor_type;location;lat;lon;timestamp;pressure;altitude;pressure_sealevel;temperature;humidity
36454;BME280;22478;51.740;-1.314;2023-03-23T00:00:12;98266.18;;;2.43;100.00
36454;BME280;22478;51.740;-1.314;2023-03-23T00:02:39;98268.35;;;1.69;100.00
36454;BME280;22478;51.740;-1.314;2023-03-23T00:05:08;98267.37;;;3.63;100.00
36454;BME280;22478;51.740;-1.314;2023-03-23T00:07:35;98268.81;;;2.20;100.00
36454;BME280;22478;51.740;-1.314;2023-03-23T00:10:03;98272.91;;;3.86;100.00
36454;BME280;22478;51.740;-1.314;2023-03-23T00:12:31;98279.44;;;2.43;100.00
36454;BME280;22478;51.740;-1.314;2023-03-23T00:14:59;98278.24;;;2.25;100.00
36454;BME280;22478;51.740;-1.314;2023-03-23T00:17:26;98287.71;;;2.18;100.00
36454;BME280;22478;51.740;-1.314;2023-03-23T00:19:53;98281.24;;;2.82;100.00
36454;BME280;22478;51.740;-1.314;2023-03-23T00:22:20;98287.26;;;2.32;100.00
36454;BME280;22478;51.740;-1.314;2023-03-23T00:24:48;98284.72;;;3.10;100.00
36454;BME280;22478;51.740;-1.314;2023-03-23T00:27:16;98296.49;;;1.08;100.00
36454;BME280;22478;51.740;-1.314;2023-03-23T00:29:43;98294.03;;;2.34;100.00
36454;BME280;22478;51.740;-1.314;2023-03-23T00:32:14;98295.38;;;1.82;100.00
36454;BME280;22478;51.740;-1.314;2023-03-23T00:34:42;98297.91;;;2.22;100.00
36454;BME280;22478;51.740;-1.314;2023-03-23T00:37:10;98306.45;;;1.71;100.00
36454;BME280;22478;51.740;-1.314;2023-03-23T00:39:38;98312.00;;;1.19;100.00
36454;BME280;22478;51.740;-1.314;2023-03-23T00:42:05;98316.52;;;1.81;100.00
36454;BME280;22478;51.740;-1.314;2023-03-23T00:44:33;98311.91;;;1.66;100.00
36454;BME280;22478;51.740;-1.314;2023-03-23T00:47:00;98317.52;;;0.74;100.00
36454;BME280;22478;51.740;-1.314;2023-03-23T00:49:28;98317.25;;;2.59;100.00
36454;BME280;22478;51.740;-1.314;2023-03-23T00:51:57;98318.23;;;1.78;100.00
36454;BME280;22478;51.740;-1.314;2023-03-23T00:54:25;98314.15;;;2.12;100.00
36454;BME280;22478;51.740;-1.314;2023-03-23T00:56:53;98333.85;;;0.70;100.00
36454;BME280;22478;51.740;-1.314;2023-03-23T00:59:20;98334.45;;;2.93;100.00
36454;BME280;22478;51.740;-1.314;2023-03-23T01:01:48;98340.67;;;3.05;100.00
36454;BME280;22478;51.740;-1.314;2023-03-23T01:04:16;98346.14;;;1.39;100.00
36454;BME280;22478;51.740;-1.314;2023-03-23T01:06:44;98342.74;;;0.89;100.00
36454;BME280;22478;51.740;-1.314;2023-03-23T01:09:14;98345.61;;;1.72;100.00
36454;BME280;22478;51.740;-1.314;2023-03-23T01:11:43;98341.99;;;2.66;100.00
36454;BME280;22478;51.740;-1.314;2023-03-23T01:14:13;98347.99;;;1.22;100.00
36454;BME280;22478;51.740;-1.314;2023-03-23T01:16:41;98349.58;;;2.85;100.00
36454;BME280;22478;51.740;-1.314;2023-03-23T01:19:08;98352.86;;;1.85;100.00
36454;BME280;22478;51.740;-1.314;2023-03-23T01:21:36;98356.12;;;1.91;100.00
36454;BME280;22478;51.740;-1.314;2023-03-23T01:24:04;98359.95;;;0.88;100.00
36454;BME280;22478;51.740;-1.314;2023-03-23T01:26:31;98361.32;;;2.71;100.00
36454;BME280;22478;51.740;-1.314;2023-03-23T01:28:58;98362.26;;;1.12;100.00
36454;BME280;22478;51.740;-1.314;2023-03-23T01:31:26;98360.75;;;2.00;100.00
36454;BME280;22478;51.740;-1.314;2023-03-23T01:33:53;98364.74;;;0.81;100.00
36454;BME280;22478;51.740;-1.314;2023-03-23T01:36:24;98365.63;;;2.45;100.00
36454;BME280;22478;51.740;-1.314;2023-03-23T01:38:51;98379.29;;;0.24;100.00
36454;BME280;22478;51.740;-1.314;2023-03-23T01:41:19;98381.57;;;0.32;100.00
36454;BME280;22478;51.740;-1.314;2023-03-23T01:44:04;98391.68;;;0.20;100.00
36454;BME280;22478;51.740;-1.314;2023-03-23T01:46:33;98386.87;;;0.81;100.00
36454;BME280;22478;51.740;-1.314;2023-03-23T01:49:05;98380.74;;;2.09;100.00
36454;BME280;22478;51.740;-1.314;2023-03-23T01:51:35;98395.05;;;-0.81;100.00
36454;BME280;22478;51.740;-1.314;2023-03-23T01:54:07;98392.38;;;0.52;100.00
36454;BME280;22478;51.740;-1.314;2023-03-23T01:56:41;98389.47;;;0.54;100.00
36454;BME280;22478;51.740;-1.314;2023-03-23T01:59:13;98383.86;;;1.40;100.00
36454;BME280;22478;51.740;-1.314;2023-03-23T02:01:41;98397.40;;;0.09;100.00
36454;BME280;22478;51.740;-1.314;2023-03-23T02:04:08;98397.44;;;-0.12;100.00
36454;BME280;22478;51.740;-1.314;2023-03-23T02:06:35;98399.47;;;0.43;100.00
36454;BME280;22478;51.740;-1.314;2023-03-23T02:09:02;98390.86;;;0.78;100.00
36454;BME280;22478;51.740;-1.314;2023-03-23T02:11:30;98388.93;;;1.96;100.00
36454;BME280;22478;51.740;-1.314;2023-03-23T02:13:57;98393.25;;;0.71;100.00
36454;BME280;22478;51.740;-1.314;2023-03-23T02:16:33;98399.29;;;0.18;100.00
36454;BME280;22478;51.740;-1.314;2023-03-23T02:19:14;98387.20;;;0.81;100.00
36454;BME280;22478;51.740;-1.314;2023-03-23T02:22:01;98395.21;;;0.43;100.00
36454;BME280;22478;51.740;-1.314;2023-03-23T02:25:21;98394.96;;;1.31;100.00
36454;BME280;22478;51.740;-1.314;2023-03-23T02:28:13;98398.14;;;-0.07;100.00
36454;BME280;22478;51.740;-1.314;2023-03-23T02:30:52;98399.88;;;0.61;100.00
36454;BME280;22478;51.740;-1.314;2023-03-23T02:33:35;98398.18;;;1.38;100.00
36454;BME280;22478;51.740;-1.314;2023-03-23T02:36:09;98396.80;;;2.41;100.00
36454;BME280;22478;51.740;-1.314;2023-03-23T02:38:41;98401.43;;;2.26;100.00
36454;BME280;22478;51.740;-1.314;2023-03-23T02:41:11;98396.15;;;2.78;100.00
36454;BME280;22478;51.740;-1.314;2023-03-23T02:43:42;98399.79;;;2.85;100.00
36454;BME280;22478;51.740;-1.314;2023-03-23T02:46:13;98398.15;;;2.24;100.00
36454;BME280;22478;51.740;-1.314;2023-03-23T02:48:43;98399.38;;;2.49;100.00
36454;BME280;22478;51.740;-1.314;2023-03-23T02:51:12;98413.60;;;-0.29;100.00
36454;BME280;22478;51.740;-1.314;2023-03-23T02:53:42;98403.08;;;1.22;100.00
36454;BME280;22478;51.740;-1.314;2023-03-23T02:56:10;98401.08;;;1.40;100.00
36454;BME280;22478;51.740;-1.314;2023-03-23T02:58:40;98409.71;;;0.64;100.00
36454;BME280;22478;51.740;-1.314;2023-03-23T03:01:45;98398.50;;;2.05;100.00
36454;BME280;22478;51.740;-1.314;2023-03-23T03:04:17;98400.44;;;1.53;100.00
36454;BME280;22478;51.740;-1.314;2023-03-23T03:06:54;98402.07;;;2.21;100.00
36454;BME280;22478;51.740;-1.314;2023-03-23T03:09:31;98402.33;;;2.68;100.00
36454;BME280;22478;51.740;-1.314;2023-03-23T03:12:08;98401.82;;;3.14;100.00
36454;BME280;22478;51.740;-1.314;2023-03-23T03:14:40;98399.35;;;3.56;100.00
36454;BME280;22478;51.740;-1.314;2023-03-23T03:17:14;98398.03;;;4.53;100.00
36454;BME280;22478;51.740;-1.314;2023-03-23T03:19:48;98394.08;;;4.79;100.00
36454;BME280;22478;51.740;-1.314;2023-03-23T03:22:18;98393.37;;;3.53;100.00
36454;BME280;22478;51.740;-1.314;2023-03-23T03:24:47;98391.40;;;3.62;100.00
36454;BME280;22478;51.740;-1.314;2023-03-23T03:27:17;98400.41;;;1.71;100.00
36454;BME280;22478;51.740;-1.314;2023-03-23T03:29:48;98399.69;;;2.21;100.00
36454;BME280;22478;51.740;-1.314;2023-03-23T03:32:18;98396.66;;;1.10;100.00
36454;BME280;22478;51.740;-1.314;2023-03-23T03:34:47;98392.80;;;2.85;100.00
36454;BME280;22478;51.740;-1.314;2023-03-23T03:37:15;98395.24;;;0.87;100.00
36454;BME280;22478;51.740;-1.314;2023-03-23T03:39:42;98393.87;;;2.36;100.00
36454;BME280;22478;51.740;-1.314;2023-03-23T03:42:10;98390.59;;;3.11;100.00
36454;BME280;22478;51.740;-1.314;2023-03-23T03:44:38;98391.18;;;1.75;100.00
36454;BME280;22478;51.740;-1.314;2023-03-23T03:47:05;98389.57;;;1.83;100.00
36454;BME280;22478;51.740;-1.314;2023-03-23T03:49:32;98384.58;;;3.37;100.00
36454;BME280;22478;51.740;-1.314;2023-03-23T03:51:59;98380.77;;;3.15;100.00
36454;BME280;22478;51.740;-1.314;2023-03-23T03:54:26;98380.32;;;3.13;100.00
36454;BME280;22478;51.740;-1.314;2023-03-23T03:56:53;98384.07;;;2.09;100.00
36454;BME280;22478;51.740;-1.314;2023-03-23T03:59:20;98389.05;;;1.50;100.00
36454;BME280;22478;51.740;-1.314;2023-03-23T04:01:47;98387.00;;;2.72;100.00
36454;BME280;22478;51.740;-1.314;2023-03-23T04:04:13;98386.13;;;3.43;100.00
36454;BME280;22478;51.740;-1.314;2023-03-23T04:06:40;98388.62;;;0.99;100.00
36454;BME280;22478;51.740;-1.314;2023-03-23T04:09:08;98384.95;;;2.80;100.00
36454;BME280;22478;51.740;-1.314;2023-03-23T04:11:35;98398.01;;;0.20;100.00
36454;BME280;22478;51.740;-1.314;2023-03-23T04:14:02;98392.35;;;0.95;100.00
36454;BME280;22478;51.740;-1.314;2023-03-23T04:16:29;98408.83;;;-0.43;100.00
36454;BME280;22478;51.740;-1.314;2023-03-23T04:18:56;98402.17;;;1.61;100.00
36454;BME280;22478;51.740;-1.314;2023-03-23T04:21:23;98408.82;;;0.73;100.00
36454;BME280;22478;51.740;-1.314;2023-03-23T04:23:50;98417.87;;;-0.13;100.00
36454;BME280;22478;51.740;-1.314;2023-03-23T04:26:18;98415.05;;;-0.98;100.00
36454;BME280;22478;51.740;-1.314;2023-03-23T04:28:45;98420.55;;;-0.17;100.00
36454;BME280;22478;51.740;-1.314;2023-03-23T04:31:12;98419.23;;;0.21;100.00
36454;BME280;22478;51.740;-1.314;2023-03-23T04:33:39;98422.28;;;0.32;100.00
36454;BME280;22478;51.740;-1.314;2023-03-23T04:36:07;98412.44;;;2.38;100.00
36454;BME280;22478;51.740;-1.314;2023-03-23T04:38:34;98411.66;;;1.43;100.00
36454;BME280;22478;51.740;-1.314;2023-03-23T04:41:02;98418.09;;;-0.68;100.00
36454;BME280;22478;51.740;-1.314;2023-03-23T04:43:29;98420.81;;;-0.28;100.00
36454;BME280;22478;51.740;-1.314;2023-03-23T04:45:58;98413.54;;;1.22;100.00
36454;BME280;22478;51.740;-1.314;2023-03-23T04:48:27;98414.69;;;1.26;100.00
36454;BME280;22478;51.740;-1.314;2023-03-23T04:50:54;98410.11;;;2.05;100.00
36454;BME280;22478;51.740;-1.314;2023-03-23T04:53:22;98426.95;;;0.16;100.00
36454;BME280;22478;51.740;-1.314;2023-03-23T04:55:49;98430.86;;;-0.03;100.00
36454;BME280;22478;51.740;-1.314;2023-03-23T04:58:16;98429.44;;;1.29;100.00
36454;BME280;22478;51.740;-1.314;2023-03-23T05:00:44;98429.52;;;0.94;100.00
36454;BME280;22478;51.740;-1.314;2023-03-23T05:03:11;98419.80;;;1.95;100.00
36454;BME280;22478;51.740;-1.314;2023-03-23T05:05:39;98428.96;;;1.49;100.00
36454;BME280;22478;51.740;-1.314;2023-03-23T05:08:06;98436.86;;;-0.04;100.00
36454;BME280;22478;51.740;-1.314;2023-03-23T05:10:33;98434.11;;;0.21;100.00
36454;BME280;22478;51.740;-1.314;2023-03-23T05:13:00;98434.06;;;0.25;100.00
36454;BME280;22478;51.740;-1.314;2023-03-23T05:15:27;98427.80;;;1.76;100.00
36454;BME280;22478;51.740;-1.314;2023-03-23T05:17:54;98426.79;;;1.39;100.00
36454;BME280;22478;51.740;-1.314;2023-03-23T05:20:21;98430.20;;;0.92;100.00
36454;BME280;22478;51.740;-1.314;2023-03-23T05:22:49;98430.06;;;1.32;100.00
36454;BME280;22478;51.740;-1.314;2023-03-23T05:25:17;98437.76;;;0.11;100.00
36454;BME280;22478;51.740;-1.314;2023-03-23T05:27:46;98420.64;;;1.20;100.00
36454;BME280;22478;51.740;-1.314;2023-03-23T05:30:14;98434.09;;;0.57;100.00
36454;BME280;22478;51.740;-1.314;2023-03-23T05:32:42;98432.20;;;1.65;100.00
36454;BME280;22478;51.740;-1.314;2023-03-23T05:35:10;98424.22;;;2.11;100.00
36454;BME280;22478;51.740;-1.314;2023-03-23T05:37:38;98425.05;;;1.19;100.00
36454;BME280;22478;51.740;-1.314;2023-03-23T05:40:06;98422.28;;;1.86;100.00
36454;BME280;22478;51.740;-1.314;2023-03-23T05:42:35;98418.20;;;2.40;100.00
36454;BME280;22478;51.740;-1.314;2023-03-23T05:45:02;98426.25;;;1.13;100.00
36454;BME280;22478;51.740;-1.314;2023-03-23T05:47:31;98423.45;;;2.81;100.00
36454;BME280;22478;51.740;-1.314;2023-03-23T05:49:58;98423.39;;;1.85;100.00
36454;BME280;22478;51.740;-1.314;2023-03-23T05:52:25;98428.07;;;1.56;100.00
36454;BME280;22478;51.740;-1.314;2023-03-23T05:54:53;98422.15;;;2.17;100.00
36454;BME280;22478;51.740;-1.314;2023-03-23T05:57:20;98419.42;;;1.96;100.00
36454;BME280;22478;51.740;-1.314;2023-03-23T05:59:48;98412.30;;;2.15;100.00
36454;BME280;22478;51.740;-1.314;2023-03-23T06:02:16;98413.83;;;0.59;100.00
36454;BME280;22478;51.740;-1.314;2023-03-23T06:04:44;98418.70;;;1.72;100.00
36454;BME280;22478;51.740;-1.314;2023-03-23T06:07:11;98416.75;;;1.52;100.00
36454;BME280;22478;51.740;-1.314;2023-03-23T06:09:39;98415.25;;;2.50;100.00
36454;BME280;22478;51.740;-1.314;2023-03-23T06:12:07;98408.13;;;2.49;100.00
36454;BME280;22478;51.740;-1.314;2023-03-23T06:14:35;98412.77;;;1.31;100.00
36454;BME280;22478;51.740;-1.314;2023-03-23T06:17:02;98409.45;;;2.38;100.00
36454;BME280;22478;51.740;-1.314;2023-03-23T06:19:30;98410.43;;;2.24;100.00
36454;BME280;22478;51.740;-1.314;2023-03-23T06:21:57;98409.12;;;2.29;100.00
36454;BME280;22478;51.740;-1.314;2023-03-23T06:24:25;98409.48;;;2.25;100.00
36454;BME280;22478;51.740;-1.314;2023-03-23T06:26:52;98410.76;;;1.41;100.00
36454;BME280;22478;51.740;-1.314;2023-03-23T06:29:20;98410.91;;;3.05;100.00
36454;BME280;22478;51.740;-1.314;2023-03-23T06:31:51;98407.83;;;2.04;100.00
36454;BME280;22478;51.740;-1.314;2023-03-23T06:34:20;98411.61;;;1.73;100.00
36454;BME280;22478;51.740;-1.314;2023-03-23T06:36:47;98415.18;;;1.57;100.00
36454;BME280;22478;51.740;-1.314;2023-03-23T06:39:15;98407.07;;;2.15;100.00
36454;BME280;22478;51.740;-1.314;2023-03-23T06:41:42;98410.65;;;2.19;100.00
36454;BME280;22478;51.740;-1.314;2023-03-23T06:44:10;98420.67;;;1.08;100.00
36454;BME280;22478;51.740;-1.314;2023-03-23T06:46:37;98412.20;;;2.11;100.00
36454;BME280;22478;51.740;-1.314;2023-03-23T06:49:05;98412.91;;;2.77;100.00
36454;BME280;22478;51.740;-1.314;2023-03-23T06:51:32;98409.33;;;2.18;100.00
36454;BME280;22478;51.740;-1.314;2023-03-23T06:53:59;98412.53;;;2.52;100.00
36454;BME280;22478;51.740;-1.314;2023-03-23T06:56:26;98422.40;;;1.24;100.00
36454;BME280;22478;51.740;-1.314;2023-03-23T06:58:53;98414.52;;;2.70;100.00
36454;BME280;22478;51.740;-1.314;2023-03-23T07:01:21;98419.19;;;1.61;100.00
36454;BME280;22478;51.740;-1.314;2023-03-23T07:03:49;98416.99;;;1.72;100.00
36454;BME280;22478;51.740;-1.314;2023-03-23T07:06:16;98415.20;;;2.09;100.00
36454;BME280;22478;51.740;-1.314;2023-03-23T07:08:43;98414.00;;;2.01;100.00
36454;BME280;22478;51.740;-1.314;2023-03-23T07:11:11;98417.53;;;1.96;100.00
36454;BME280;22478;51.740;-1.314;2023-03-23T07:13:38;98415.46;;;1.80;100.00
36454;BME280;22478;51.740;-1.314;2023-03-23T07:16:07;98413.23;;;1.39;100.00
36454;BME280;22478;51.740;-1.314;2023-03-23T07:18:35;98414.20;;;2.40;100.00
36454;BME280;22478;51.740;-1.314;2023-03-23T07:21:16;98404.88;;;2.53;100.00
36454;BME280;22478;51.740;-1.314;2023-03-23T07:23:44;98416.01;;;2.17;100.00
36454;BME280;22478;51.740;-1.314;2023-03-23T07:26:11;98412.06;;;2.94;100.00
36454;BME280;22478;51.740;-1.314;2023-03-23T07:28:38;98412.91;;;2.26;100.00
36454;BME280;22478;51.740;-1.314;2023-03-23T07:31:06;98407.03;;;2.63;100.00
36454;BME280;22478;51.740;-1.314;2023-03-23T07:33:34;98407.68;;;3.79;100.00
36454;BME280;22478;51.740;-1.314;2023-03-23T07:36:01;98407.25;;;4.12;100.00
36454;BME280;22478;51.740;-1.314;2023-03-23T07:38:29;98416.32;;;2.27;100.00
36454;BME280;22478;51.740;-1.314;2023-03-23T07:40:56;98410.13;;;4.08;100.00
36454;BME280;22478;51.740;-1.314;2023-03-23T07:43:23;98416.57;;;2.41;100.00
36454;BME280;22478;51.740;-1.314;2023-03-23T07:45:51;98419.59;;;2.95;100.00
36454;BME280;22478;51.740;-1.314;2023-03-23T07:48:19;98407.30;;;3.03;100.00
36454;BME280;22478;51.740;-1.314;2023-03-23T07:50:46;98422.33;;;2.90;100.00
36454;BME280;22478;51.740;-1.314;2023-03-23T07:53:13;98413.16;;;2.88;100.00
36454;BME280;22478;51.740;-1.314;2023-03-23T07:55:41;98424.15;;;2.50;100.00
36454;BME280;22478;51.740;-1.314;2023-03-23T07:58:08;98418.21;;;3.17;100.00
36454;BME280;22478;51.740;-1.314;2023-03-23T08:00:35;98414.15;;;3.79;100.00
36454;BME280;22478;51.740;-1.314;2023-03-23T08:03:05;98417.19;;;3.01;100.00
36454;BME280;22478;51.740;-1.314;2023-03-23T08:05:33;98408.44;;;4.13;100.00
36454;BME280;22478;51.740;-1.314;2023-03-23T08:08:00;98416.33;;;5.36;100.00
36454;BME280;22478;51.740;-1.314;2023-03-23T08:10:28;98406.16;;;5.44;100.00
36454;BME280;22478;51.740;-1.314;2023-03-23T08:12:56;98399.65;;;5.56;100.00
36454;BME280;22478;51.740;-1.314;2023-03-23T08:15:23;98414.15;;;3.70;100.00
36454;BME280;22478;51.740;-1.314;2023-03-23T08:17:50;98411.08;;;5.05;100.00
36454;BME280;22478;51.740;-1.314;2023-03-23T08:20:18;98409.27;;;4.73;100.00
36454;BME280;22478;51.740;-1.314;2023-03-23T08:22:52;98394.56;;;5.60;100.00
36454;BME280;22478;51.740;-1.314;2023-03-23T08:25:20;98394.81;;;6.69;100.00
36454;BME280;22478;51.740;-1.314;2023-03-23T08:27:48;98393.15;;;9.29;100.00
36454;BME280;22478;51.740;-1.314;2023-03-23T08:30:17;98401.24;;;7.70;100.00
36454;BME280;22478;51.740;-1.314;2023-03-23T08:32:45;98398.88;;;7.84;100.00
36454;BME280;22478;51.740;-1.314;2023-03-23T08:35:14;98396.86;;;9.10;100.00
36454;BME280;22478;51.740;-1.314;2023-03-23T08:37:42;98402.24;;;6.66;100.00
36454;BME280;22478;51.740;-1.314;2023-03-23T08:40:12;98396.68;;;6.24;100.00
36454;BME280;22478;51.740;-1.314;2023-03-23T08:42:41;98396.66;;;6.72;100.00
36454;BME280;22478;51.740;-1.314;2023-03-23T08:45:11;98407.79;;;3.35;100.00
36454;BME280;22478;51.740;-1.314;2023-03-23T08:47:38;98408.80;;;5.25;100.00
36454;BME280;22478;51.740;-1.314;2023-03-23T08:50:09;98415.94;;;4.13;100.00
36454;BME280;22478;51.740;-1.314;2023-03-23T08:52:37;98418.91;;;4.34;100.00
36454;BME280;22478;51.740;-1.314;2023-03-23T08:55:06;98425.29;;;4.39;100.00
36454;BME280;22478;51.740;-1.314;2023-03-23T08:57:33;98422.62;;;4.68;100.00
36454;BME280;22478;51.740;-1.314;2023-03-23T09:00:00;98413.09;;;6.20;100.00
36454;BME280;22478;51.740;-1.314;2023-03-23T09:02:27;98428.95;;;4.35;100.00
36454;BME280;22478;51.740;-1.314;2023-03-23T09:04:54;98435.28;;;5.50;100.00
36454;BME280;22478;51.740;-1.314;2023-03-23T09:07:21;98427.30;;;5.95;100.00
36454;BME280;22478;51.740;-1.314;2023-03-23T09:09:49;98433.45;;;5.32;100.00
36454;BME280;22478;51.740;-1.314;2023-03-23T09:12:16;98420.01;;;5.81;100.00
36454;BME280;22478;51.740;-1.314;2023-03-23T09:14:43;98423.82;;;5.95;100.00
36454;BME280;22478;51.740;-1.314;2023-03-23T09:17:11;98429.25;;;5.42;100.00
36454;BME280;22478;51.740;-1.314;2023-03-23T09:19:38;98413.69;;;5.11;100.00
36454;BME280;22478;51.740;-1.314;2023-03-23T09:22:05;98419.81;;;4.07;100.00
36454;BME280;22478;51.740;-1.314;2023-03-23T09:24:32;98412.85;;;4.54;100.00
36454;BME280;22478;51.740;-1.314;2023-03-23T09:27:00;98405.11;;;4.54;100.00
36454;BME280;22478;51.740;-1.314;2023-03-23T09:29:27;98403.33;;;6.10;100.00
36454;BME280;22478;51.740;-1.314;2023-03-23T09:31:54;98395.71;;;6.10;100.00
36454;BME280;22478;51.740;-1.314;2023-03-23T09:34:22;98406.25;;;5.94;100.00
36454;BME280;22478;51.740;-1.314;2023-03-23T09:36:49;98408.64;;;5.57;100.00
36454;BME280;22478;51.740;-1.314;2023-03-23T09:39:16;98400.82;;;5.03;100.00
36454;BME280;22478;51.740;-1.314;2023-03-23T09:41:55;98401.90;;;6.80;100.00
36454;BME280;22478;51.740;-1.314;2023-03-23T09:44:33;98398.58;;;4.53;100.00
36454;BME280;22478;51.740;-1.314;2023-03-23T09:47:10;98407.16;;;6.23;100.00
36454;BME280;22478;51.740;-1.314;2023-03-23T09:49:42;98409.33;;;5.78;100.00
36454;BME280;22478;51.740;-1.314;2023-03-23T09:52:13;98411.04;;;4.86;100.00
36454;BME280;22478;51.740;-1.314;2023-03-23T09:54:43;98413.67;;;7.59;100.00
36454;BME280;22478;51.740;-1.314;2023-03-23T09:57:15;98403.64;;;6.17;100.00
36454;BME280;22478;51.740;-1.314;2023-03-23T09:59:51;98399.45;;;7.66;100.00
36454;BME280;22478;51.740;-1.314;2023-03-23T10:02:25;98403.73;;;6.44;100.00
36454;BME280;22478;51.740;-1.314;2023-03-23T10:04:56;98400.12;;;7.58;100.00
36454;BME280;22478;51.740;-1.314;2023-03-23T10:07:26;98404.03;;;8.40;100.00
36454;BME280;22478;51.740;-1.314;2023-03-23T10:09:57;98395.13;;;9.15;100.00
36454;BME280;22478;51.740;-1.314;2023-03-23T10:12:31;98405.84;;;9.72;100.00
36454;BME280;22478;51.740;-1.314;2023-03-23T10:15:10;98405.91;;;10.38;100.00
36454;BME280;22478;51.740;-1.314;2023-03-23T10:17:45;98418.39;;;6.74;100.00
36454;BME280;22478;51.740;-1.314;2023-03-23T10:20:35;98412.68;;;8.14;100.00
36454;BME280;22478;51.740;-1.314;2023-03-23T10:23:20;98419.53;;;8.70;100.00
36454;BME280;22478;51.740;-1.314;2023-03-23T10:25:54;98429.35;;;9.23;100.00
36454;BME280;22478;51.740;-1.314;2023-03-23T10:28:35;98416.55;;;8.31;100.00
36454;BME280;22478;51.740;-1.314;2023-03-23T10:31:03;98416.57;;;10.70;100.00
36454;BME280;22478;51.740;-1.314;2023-03-23T10:33:36;98413.54;;;9.20;100.00
36454;BME280;22478;51.740;-1.314;2023-03-23T10:36:08;98405.41;;;9.72;100.00
36454;BME280;22478;51.740;-1.314;2023-03-23T10:38:39;98419.18;;;10.01;100.00
36454;BME280;22478;51.740;-1.314;2023-03-23T10:41:11;98413.10;;;9.12;100.00
36454;BME280;22478;51.740;-1.314;2023-03-23T10:43:38;98413.83;;;10.97;100.00
36454;BME280;22478;51.740;-1.314;2023-03-23T10:46:15;98415.29;;;9.55;99.67
36454;BME280;22478;51.740;-1.314;2023-03-23T10:48:44;98409.84;;;9.68;100.00
36454;BME280;22478;51.740;-1.314;2023-03-23T10:51:13;98412.25;;;11.77;97.11
36454;BME280;22478;51.740;-1.314;2023-03-23T10:53:45;98418.68;;;8.09;100.00
36454;BME280;22478;51.740;-1.314;2023-03-23T10:56:22;98422.44;;;8.78;100.00
36454;BME280;22478;51.740;-1.314;2023-03-23T10:58:51;98403.73;;;10.37;100.00
36454;BME280;22478;51.740;-1.314;2023-03-23T11:01:20;98420.61;;;10.30;100.00
36454;BME280;22478;51.740;-1.314;2023-03-23T11:03:55;98425.88;;;9.48;100.00
36454;BME280;22478;51.740;-1.314;2023-03-23T11:06:25;98402.03;;;12.54;86.54
36454;BME280;22478;51.740;-1.314;2023-03-23T11:08:56;98414.17;;;10.75;94.35
36454;BME280;22478;51.740;-1.314;2023-03-23T11:11:27;98418.59;;;12.62;88.58
36454;BME280;22478;51.740;-1.314;2023-03-23T11:13:58;98420.83;;;9.33;100.00
36454;BME280;22478;51.740;-1.314;2023-03-23T11:16:27;98425.45;;;10.53;100.00
36454;BME280;22478;51.740;-1.314;2023-03-23T11:18:56;98426.34;;;13.99;85.32
36454;BME280;22478;51.740;-1.314;2023-03-23T11:21:25;98421.88;;;11.85;76.57
36454;BME280;22478;51.740;-1.314;2023-03-23T11:23:54;98414.35;;;10.28;91.94
36454;BME280;22478;51.740;-1.314;2023-03-23T11:26:25;98410.26;;;11.30;89.63
36454;BME280;22478;51.740;-1.314;2023-03-23T11:28:57;98429.72;;;10.93;92.25
36454;BME280;22478;51.740;-1.314;2023-03-23T11:31:29;98435.21;;;12.10;84.19
36454;BME280;22478;51.740;-1.314;2023-03-23T11:33:59;98428.16;;;11.72;86.66
36454;BME280;22478;51.740;-1.314;2023-03-23T11:36:33;98425.06;;;12.51;82.57
36454;BME280;22478;51.740;-1.314;2023-03-23T11:39:01;98419.59;;;13.04;80.12
36454;BME280;22478;51.740;-1.314;2023-03-23T11:41:32;98415.66;;;11.30;79.05
36454;BME280;22478;51.740;-1.314;2023-03-23T11:44:07;98438.85;;;10.73;82.23
36454;BME280;22478;51.740;-1.314;2023-03-23T11:46:42;98429.79;;;11.97;82.52
36454;BME280;22478;51.740;-1.314;2023-03-23T11:49:20;98437.25;;;8.55;99.37
36454;BME280;22478;51.740;-1.314;2023-03-23T11:51:50;98421.90;;;10.08;100.00
36454;BME280;22478;51.740;-1.314;2023-03-23T11:54:28;98425.24;;;8.66;99.83
36454;BME280;22478;51.740;-1.314;2023-03-23T11:56:57;98413.40;;;9.57;97.06
36454;BME280;22478;51.740;-1.314;2023-03-23T11:59:28;98403.65;;;10.09;98.62
36454;BME280;22478;51.740;-1.314;2023-03-23T12:02:03;98403.72;;;10.16;100.00
36454;BME280;22478;51.740;-1.314;2023-03-23T12:04:38;98406.98;;;8.39;100.00
36454;BME280;22478;51.740;-1.314;2023-03-23T12:07:20;98422.48;;;7.02;100.00
36454;BME280;22478;51.740;-1.314;2023-03-23T12:09:58;98416.55;;;6.78;100.00
36454;BME280;22478;51.740;-1.314;2023-03-23T12:12:35;98422.61;;;8.07;100.00
36454;BME280;22478;51.740;-1.314;2023-03-23T12:15:12;98417.31;;;7.66;100.00
36454;BME280;22478;51.740;-1.314;2023-03-23T12:17:50;98411.03;;;9.27;100.00
36454;BME280;22478;51.740;-1.314;2023-03-23T12:20:29;98407.56;;;10.04;100.00
36454;BME280;22478;51.740;-1.314;2023-03-23T12:23:08;98407.35;;;9.42;100.00
36454;BME280;22478;51.740;-1.314;2023-03-23T12:25:52;98413.66;;;11.22;100.00
36454;BME280;22478;51.740;-1.314;2023-03-23T12:28:32;98421.79;;;9.28;100.00
36454;BME280;22478;51.740;-1.314;2023-03-23T12:31:15;98421.75;;;7.83;100.00
36454;BME280;22478;51.740;-1.314;2023-03-23T12:33:51;98415.25;;;10.19;100.00
36454;BME280;22478;51.740;-1.314;2023-03-23T12:36:29;98415.44;;;7.68;100.00
36454;BME280;22478;51.740;-1.314;2023-03-23T12:39:29;98413.53;;;7.39;100.00
36454;BME280;22478;51.740;-1.314;2023-03-23T12:42:02;98401.68;;;8.22;100.00
36454;BME280;22478;51.740;-1.314;2023-03-23T12:44:35;98390.80;;;8.04;100.00
36454;BME280;22478;51.740;-1.314;2023-03-23T12:47:13;98404.48;;;8.94;100.00
36454;BME280;22478;51.740;-1.314;2023-03-23T12:49:48;98407.85;;;7.06;100.00
36454;BME280;22478;51.740;-1.314;2023-03-23T12:52:21;98385.12;;;7.63;100.00
36454;BME280;22478;51.740;-1.314;2023-03-23T12:54:53;98372.59;;;6.89;100.00
36454;BME280;22478;51.740;-1.314;2023-03-23T12:57:25;98370.83;;;8.19;100.00
36454;BME280;22478;51.740;-1.314;2023-03-23T12:59:56;98366.68;;;6.22;100.00
36454;BME280;22478;51.740;-1.314;2023-03-23T13:02:30;98380.59;;;8.51;100.00
36454;BME280;22478;51.740;-1.314;2023-03-23T13:05:03;98379.58;;;10.21;100.00